sensor_id;sensor_type;location;lat;lon;timestamp;P1;durP1;ratioP1;P2;durP2;ratioP2
14100;SDS011;7127;49.372;8.166;2024-01-30T00:00:09;2.80;;;2.30;;
14100;SDS011;7127;49.372;8.166;2024-01-30T00:02:36;3.07;;;2.47;;
14100;SDS011;7127;49.372;8.166;2024-01-30T00:05:05;3.47;;;2.73;;
14100;SDS011;7127;49.372;8.166;2024-01-30T00:07:31;3.00;;;2.47;;
14100;SDS011;7127;49.372;8.166;2024-01-30T00:09:58;3.07;;;2.67;;
14100;SDS011;7127;49.372;8.166;2024-01-30T00:12:25;3.20;;;2.43;;
14100;SDS011;7127;49.372;8.166;2024-01-30T00:14:51;4.40;;;2.50;;
14100;SDS011;7127;49.372;8.166;2024-01-30T00:17:19;3.23;;;2.30;;
14100;SDS011;7127;49.372;8.166;2024-01-30T00:19:46;2.57;;;2.30;;
14100;SDS011;7127;49.372;8.166;2024-01-30T00:22:14;2.53;;;2.10;;
14100;SDS011;7127;49.372;8.166;2024-01-30T00:24:41;3.20;;;2.53;;
14100;SDS011;7127;49.372;8.166;2024-01-30T00:27:08;2.80;;;2.40;;
14100;SDS011;7127;49.372;8.166;2024-01-30T00:29:34;3.43;;;2.53;;
14100;SDS011;7127;49.372;8.166;2024-01-30T00:32:01;3.90;;;2.50;;
14100;SDS011;7127;49.372;8.166;2024-01-30T00:34:28;2.87;;;2.50;;
14100;SDS011;7127;49.372;8.166;2024-01-30T00:36:55;2.97;;;2.37;;
14100;SDS011;7127;49.372;8.166;2024-01-30T00:39:23;3.83;;;2.60;;
14100;SDS011;7127;49.372;8.166;2024-01-30T00:41:50;3.40;;;2.57;;
14100;SDS011;7127;49.372;8.166;2024-01-30T00:44:17;2.90;;;2.50;;
14100;SDS011;7127;49.372;8.166;2024-01-30T00:46:43;2.87;;;2.27;;
14100;SDS011;7127;49.372;8.166;2024-01-30T00:49:10;3.33;;;2.70;;
14100;SDS011;7127;49.372;8.166;2024-01-30T00:51:37;4.00;;;2.53;;
14100;SDS011;7127;49.372;8.166;2024-01-30T00:54:04;3.50;;;2.60;;
14100;SDS011;7127;49.372;8.166;2024-01-30T00:56:32;3.00;;;2.40;;
14100;SDS011;7127;49.372;8.166;2024-01-30T00:58:59;3.43;;;2.33;;
14100;SDS011;7127;49.372;8.166;2024-01-30T01:01:26;2.47;;;2.10;;
14100;SDS011;7127;49.372;8.166;2024-01-30T01:03:53;3.00;;;2.50;;
14100;SDS011;7127;49.372;8.166;2024-01-30T01:06:20;3.00;;;2.50;;
14100;SDS011;7127;49.372;8.166;2024-01-30T01:08:47;3.63;;;2.43;;
14100;SDS011;7127;49.372;8.166;2024-01-30T01:11:14;3.13;;;2.37;;
14100;SDS011;7127;49.372;8.166;2024-01-30T01:13:42;4.00;;;2.67;;
14100;SDS011;7127;49.372;8.166;2024-01-30T01:16:09;2.37;;;2.17;;
14100;SDS011;7127;49.372;8.166;2024-01-30T01:18:35;2.80;;;2.33;;
14100;SDS011;7127;49.372;8.166;2024-01-30T01:21:02;3.00;;;2.47;;
14100;SDS011;7127;49.372;8.166;2024-01-30T01:23:29;2.90;;;2.60;;
14100;SDS011;7127;49.372;8.166;2024-01-30T01:25:56;3.23;;;2.60;;
14100;SDS011;7127;49.372;8.166;2024-01-30T01:28:24;2.77;;;2.17;;
14100;SDS011;7127;49.372;8.166;2024-01-30T01:30:53;2.77;;;2.20;;
14100;SDS011;7127;49.372;8.166;2024-01-30T01:33:24;2.90;;;2.50;;
14100;SDS011;7127;49.372;8.166;2024-01-30T01:35:50;2.80;;;2.43;;
14100;SDS011;7127;49.372;8.166;2024-01-30T01:38:17;2.97;;;2.60;;
14100;SDS011;7127;49.372;8.166;2024-01-30T01:40:44;3.30;;;2.40;;
14100;SDS011;7127;49.372;8.166;2024-01-30T01:43:11;3.20;;;2.50;;
14100;SDS011;7127;49.372;8.166;2024-01-30T01:45:37;2.50;;;2.30;;
14100;SDS011;7127;49.372;8.166;2024-01-30T01:48:06;2.60;;;2.40;;
14100;SDS011;7127;49.372;8.166;2024-01-30T01:50:33;3.30;;;2.43;;
14100;SDS011;7127;49.372;8.166;2024-01-30T01:53:00;3.00;;;2.40;;
14100;SDS011;7127;49.372;8.166;2024-01-30T01:55:27;2.90;;;2.20;;
14100;SDS011;7127;49.372;8.166;2024-01-30T01:57:57;2.50;;;2.30;;
14100;SDS011;7127;49.372;8.166;2024-01-30T02:00:24;3.80;;;2.60;;
14100;SDS011;7127;49.372;8.166;2024-01-30T02:02:51;3.00;;;2.33;;
14100;SDS011;7127;49.372;8.166;2024-01-30T02:05:20;2.80;;;2.30;;
14100;SDS011;7127;49.372;8.166;2024-01-30T02:07:47;3.47;;;2.80;;
14100;SDS011;7127;49.372;8.166;2024-01-30T02:10:14;2.97;;;2.30;;
14100;SDS011;7127;49.372;8.166;2024-01-30T02:12:41;2.77;;;2.40;;
14100;SDS011;7127;49.372;8.166;2024-01-30T02:15:07;3.77;;;2.57;;
14100;SDS011;7127;49.372;8.166;2024-01-30T02:17:34;2.77;;;2.47;;
14100;SDS011;7127;49.372;8.166;2024-01-30T02:20:01;2.67;;;2.23;;
14100;SDS011;7127;49.372;8.166;2024-01-30T02:22:31;2.83;;;2.30;;
14100;SDS011;7127;49.372;8.166;2024-01-30T02:24:59;2.40;;;2.17;;
14100;SDS011;7127;49.372;8.166;2024-01-30T02:27:26;2.93;;;2.30;;
14100;SDS011;7127;49.372;8.166;2024-01-30T02:29:53;3.00;;;2.40;;
14100;SDS011;7127;49.372;8.166;2024-01-30T02:32:20;2.60;;;2.10;;
14100;SDS011;7127;49.372;8.166;2024-01-30T02:34:47;3.27;;;2.33;;
14100;SDS011;7127;49.372;8.166;2024-01-30T02:37:13;4.63;;;2.40;;
14100;SDS011;7127;49.372;8.166;2024-01-30T02:39:41;2.90;;;2.37;;
14100;SDS011;7127;49.372;8.166;2024-01-30T02:42:08;2.50;;;2.30;;
14100;SDS011;7127;49.372;8.166;2024-01-30T02:44:35;3.20;;;2.27;;
14100;SDS011;7127;49.372;8.166;2024-01-30T02:47:02;2.50;;;2.30;;
14100;SDS011;7127;49.372;8.166;2024-01-30T02:49:28;2.83;;;2.43;;
14100;SDS011;7127;49.372;8.166;2024-01-30T02:51:55;3.47;;;2.10;;
14100;SDS011;7127;49.372;8.166;2024-01-30T02:54:22;2.40;;;2.20;;
14100;SDS011;7127;49.372;8.166;2024-01-30T02:56:50;3.40;;;2.50;;
14100;SDS011;7127;49.372;8.166;2024-01-30T02:59:17;3.67;;;2.50;;
14100;SDS011;7127;49.372;8.166;2024-01-30T03:01:44;3.77;;;2.80;;
14100;SDS011;7127;49.372;8.166;2024-01-30T03:04:11;3.30;;;2.60;;
14100;SDS011;7127;49.372;8.166;2024-01-30T03:06:38;3.13;;;2.60;;
14100;SDS011;7127;49.372;8.166;2024-01-30T03:09:05;3.17;;;2.70;;
14100;SDS011;7127;49.372;8.166;2024-01-30T03:11:31;2.83;;;2.50;;
14100;SDS011;7127;49.372;8.166;2024-01-30T03:13:59;3.90;;;3.00;;
14100;SDS011;7127;49.372;8.166;2024-01-30T03:16:26;3.20;;;2.90;;
14100;SDS011;7127;49.372;8.166;2024-01-30T03:18:53;4.77;;;3.27;;
14100;SDS011;7127;49.372;8.166;2024-01-30T03:21:20;3.80;;;3.30;;
14100;SDS011;7127;49.372;8.166;2024-01-30T03:23:46;4.60;;;3.40;;
14100;SDS011;7127;49.372;8.166;2024-01-30T03:26:13;4.23;;;3.70;;
14100;SDS011;7127;49.372;8.166;2024-01-30T03:28:40;4.37;;;3.80;;
14100;SDS011;7127;49.372;8.166;2024-01-30T03:31:08;4.00;;;3.60;;
14100;SDS011;7127;49.372;8.166;2024-01-30T03:33:36;4.90;;;4.17;;
14100;SDS011;7127;49.372;8.166;2024-01-30T03:36:03;4.77;;;3.83;;
14100;SDS011;7127;49.372;8.166;2024-01-30T03:38:30;5.10;;;4.00;;
14100;SDS011;7127;49.372;8.166;2024-01-30T03:40:57;5.27;;;3.80;;
14100;SDS011;7127;49.372;8.166;2024-01-30T03:43:24;4.53;;;3.70;;
14100;SDS011;7127;49.372;8.166;2024-01-30T03:45:51;4.23;;;3.40;;
14100;SDS011;7127;49.372;8.166;2024-01-30T03:48:19;5.23;;;4.23;;
14100;SDS011;7127;49.372;8.166;2024-01-30T03:50:47;4.23;;;3.80;;
14100;SDS011;7127;49.372;8.166;2024-01-30T03:53:13;4.30;;;3.53;;
14100;SDS011;7127;49.372;8.166;2024-01-30T03:55:40;3.37;;;3.07;;
14100;SDS011;7127;49.372;8.166;2024-01-30T03:58:07;4.13;;;3.00;;
14100;SDS011;7127;49.372;8.166;2024-01-30T04:00:34;5.07;;;2.60;;
14100;SDS011;7127;49.372;8.166;2024-01-30T04:03:00;2.90;;;2.60;;
14100;SDS011;7127;49.372;8.166;2024-01-30T04:05:28;3.93;;;2.53;;
14100;SDS011;7127;49.372;8.166;2024-01-30T04:07:55;4.37;;;3.13;;
14100;SDS011;7127;49.372;8.166;2024-01-30T04:10:23;4.23;;;2.60;;
14100;SDS011;7127;49.372;8.166;2024-01-30T04:12:50;3.17;;;2.20;;
14100;SDS011;7127;49.372;8.166;2024-01-30T04:15:19;2.57;;;2.37;;
14100;SDS011;7127;49.372;8.166;2024-01-30T04:17:46;2.30;;;2.10;;
14100;SDS011;7127;49.372;8.166;2024-01-30T04:20:13;2.80;;;2.30;;
14100;SDS011;7127;49.372;8.166;2024-01-30T04:22:43;3.03;;;2.43;;
14100;SDS011;7127;49.372;8.166;2024-01-30T04:25:10;2.90;;;2.60;;
14100;SDS011;7127;49.372;8.166;2024-01-30T04:27:37;2.80;;;2.40;;
14100;SDS011;7127;49.372;8.166;2024-01-30T04:30:04;3.13;;;2.50;;
14100;SDS011;7127;49.372;8.166;2024-01-30T04:32:31;3.37;;;2.43;;
14100;SDS011;7127;49.372;8.166;2024-01-30T04:34:58;2.07;;;1.87;;
14100;SDS011;7127;49.372;8.166;2024-01-30T04:37:25;2.90;;;2.40;;
14100;SDS011;7127;49.372;8.166;2024-01-30T04:39:54;2.67;;;2.10;;
14100;SDS011;7127;49.372;8.166;2024-01-30T04:42:20;2.40;;;2.20;;
14100;SDS011;7127;49.372;8.166;2024-01-30T04:44:47;2.10;;;1.80;;
14100;SDS011;7127;49.372;8.166;2024-01-30T04:47:14;3.00;;;2.33;;
14100;SDS011;7127;49.372;8.166;2024-01-30T04:49:41;2.50;;;2.10;;
14100;SDS011;7127;49.372;8.166;2024-01-30T04:52:08;3.07;;;2.27;;
14100;SDS011;7127;49.372;8.166;2024-01-30T04:54:35;2.43;;;2.10;;
14100;SDS011;7127;49.372;8.166;2024-01-30T04:57:04;2.50;;;2.03;;
14100;SDS011;7127;49.372;8.166;2024-01-30T04:59:34;3.33;;;2.40;;
14100;SDS011;7127;49.372;8.166;2024-01-30T05:02:01;2.33;;;1.90;;
14100;SDS011;7127;49.372;8.166;2024-01-30T05:04:28;2.20;;;1.90;;
14100;SDS011;7127;49.372;8.166;2024-01-30T05:06:54;2.43;;;2.00;;
14100;SDS011;7127;49.372;8.166;2024-01-30T05:09:21;2.63;;;2.33;;
14100;SDS011;7127;49.372;8.166;2024-01-30T05:11:48;2.43;;;2.13;;
14100;SDS011;7127;49.372;8.166;2024-01-30T05:14:16;4.73;;;2.90;;
14100;SDS011;7127;49.372;8.166;2024-01-30T05:16:43;3.53;;;2.90;;
14100;SDS011;7127;49.372;8.166;2024-01-30T05:19:11;3.83;;;3.13;;
14100;SDS011;7127;49.372;8.166;2024-01-30T05:21:38;3.80;;;3.10;;
14100;SDS011;7127;49.372;8.166;2024-01-30T05:24:05;4.43;;;3.37;;
14100;SDS011;7127;49.372;8.166;2024-01-30T05:26:34;4.03;;;3.30;;
14100;SDS011;7127;49.372;8.166;2024-01-30T05:29:01;4.73;;;4.17;;
14100;SDS011;7127;49.372;8.166;2024-01-30T05:31:29;5.47;;;4.27;;
14100;SDS011;7127;49.372;8.166;2024-01-30T05:33:56;6.10;;;4.63;;
14100;SDS011;7127;49.372;8.166;2024-01-30T05:36:23;6.33;;;4.73;;
14100;SDS011;7127;49.372;8.166;2024-01-30T05:38:50;7.60;;;5.17;;
14100;SDS011;7127;49.372;8.166;2024-01-30T05:41:16;5.97;;;4.77;;
14100;SDS011;7127;49.372;8.166;2024-01-30T05:43:43;6.43;;;5.10;;
14100;SDS011;7127;49.372;8.166;2024-01-30T05:46:10;6.30;;;4.93;;
14100;SDS011;7127;49.372;8.166;2024-01-30T05:48:38;5.43;;;4.30;;
14100;SDS011;7127;49.372;8.166;2024-01-30T05:51:06;4.63;;;4.13;;
14100;SDS011;7127;49.372;8.166;2024-01-30T05:53:33;4.73;;;4.23;;
14100;SDS011;7127;49.372;8.166;2024-01-30T05:56:01;5.67;;;4.73;;
14100;SDS011;7127;49.372;8.166;2024-01-30T05:58:28;5.07;;;4.53;;
14100;SDS011;7127;49.372;8.166;2024-01-30T06:00:56;4.60;;;4.10;;
14100;SDS011;7127;49.372;8.166;2024-01-30T06:03:22;4.30;;;3.90;;
14100;SDS011;7127;49.372;8.166;2024-01-30T06:05:51;4.07;;;3.33;;
14100;SDS011;7127;49.372;8.166;2024-01-30T06:08:18;4.53;;;3.70;;
14100;SDS011;7127;49.372;8.166;2024-01-30T06:10:44;4.40;;;3.40;;
14100;SDS011;7127;49.372;8.166;2024-01-30T06:13:13;5.03;;;4.17;;
14100;SDS011;7127;49.372;8.166;2024-01-30T06:15:40;4.43;;;3.33;;
14100;SDS011;7127;49.372;8.166;2024-01-30T06:18:07;6.60;;;3.70;;
14100;SDS011;7127;49.372;8.166;2024-01-30T06:20:34;4.23;;;3.53;;
14100;SDS011;7127;49.372;8.166;2024-01-30T06:23:03;4.33;;;3.33;;
14100;SDS011;7127;49.372;8.166;2024-01-30T06:25:30;4.33;;;3.27;;
14100;SDS011;7127;49.372;8.166;2024-01-30T06:27:59;4.43;;;3.40;;
14100;SDS011;7127;49.372;8.166;2024-01-30T06:30:26;5.93;;;3.60;;
14100;SDS011;7127;49.372;8.166;2024-01-30T06:32:53;3.80;;;3.40;;
14100;SDS011;7127;49.372;8.166;2024-01-30T06:35:20;5.63;;;3.93;;
14100;SDS011;7127;49.372;8.166;2024-01-30T06:37:47;4.17;;;3.67;;
14100;SDS011;7127;49.372;8.166;2024-01-30T06:40:16;5.97;;;3.70;;
14100;SDS011;7127;49.372;8.166;2024-01-30T06:42:42;4.43;;;3.30;;
14100;SDS011;7127;49.372;8.166;2024-01-30T06:45:09;4.30;;;3.30;;
14100;SDS011;7127;49.372;8.166;2024-01-30T06:47:36;4.53;;;3.70;;
14100;SDS011;7127;49.372;8.166;2024-01-30T06:50:03;3.23;;;2.90;;
14100;SDS011;7127;49.372;8.166;2024-01-30T06:52:30;4.50;;;3.37;;
14100;SDS011;7127;49.372;8.166;2024-01-30T06:54:57;4.93;;;3.23;;
14100;SDS011;7127;49.372;8.166;2024-01-30T06:57:25;4.17;;;3.40;;
14100;SDS011;7127;49.372;8.166;2024-01-30T06:59:53;3.60;;;3.17;;
14100;SDS011;7127;49.372;8.166;2024-01-30T07:02:19;4.13;;;3.03;;
14100;SDS011;7127;49.372;8.166;2024-01-30T07:04:46;4.23;;;3.17;;
14100;SDS011;7127;49.372;8.166;2024-01-30T07:07:14;4.43;;;2.97;;
14100;SDS011;7127;49.372;8.166;2024-01-30T07:09:41;3.93;;;3.40;;
14100;SDS011;7127;49.372;8.166;2024-01-30T07:12:07;3.47;;;2.87;;
14100;SDS011;7127;49.372;8.166;2024-01-30T07:14:36;3.87;;;2.80;;
14100;SDS011;7127;49.372;8.166;2024-01-30T07:17:03;3.20;;;2.77;;
14100;SDS011;7127;49.372;8.166;2024-01-30T07:19:30;3.57;;;3.00;;
14100;SDS011;7127;49.372;8.166;2024-01-30T07:21:56;4.03;;;2.90;;
14100;SDS011;7127;49.372;8.166;2024-01-30T07:24:23;3.07;;;2.50;;
14100;SDS011;7127;49.372;8.166;2024-01-30T07:26:50;2.97;;;2.60;;
14100;SDS011;7127;49.372;8.166;2024-01-30T07:29:17;5.17;;;3.10;;
14100;SDS011;7127;49.372;8.166;2024-01-30T07:31:45;5.63;;;3.00;;
14100;SDS011;7127;49.372;8.166;2024-01-30T07:34:12;3.23;;;2.73;;
14100;SDS011;7127;49.372;8.166;2024-01-30T07:36:38;3.20;;;2.90;;
14100;SDS011;7127;49.372;8.166;2024-01-30T07:39:05;3.40;;;2.67;;
14100;SDS011;7127;49.372;8.166;2024-01-30T07:41:32;5.07;;;2.87;;
14100;SDS011;7127;49.372;8.166;2024-01-30T07:44:00;3.57;;;2.70;;
14100;SDS011;7127;49.372;8.166;2024-01-30T07:46:26;4.93;;;2.40;;
14100;SDS011;7127;49.372;8.166;2024-01-30T07:48:54;2.73;;;2.30;;
14100;SDS011;7127;49.372;8.166;2024-01-30T07:51:22;4.07;;;2.73;;
14100;SDS011;7127;49.372;8.166;2024-01-30T07:53:48;3.17;;;2.77;;
14100;SDS011;7127;49.372;8.166;2024-01-30T07:56:15;2.77;;;2.50;;
14100;SDS011;7127;49.372;8.166;2024-01-30T07:58:42;3.70;;;3.00;;
14100;SDS011;7127;49.372;8.166;2024-01-30T08:01:09;4.07;;;3.33;;
14100;SDS011;7127;49.372;8.166;2024-01-30T08:03:36;3.17;;;2.87;;
14100;SDS011;7127;49.372;8.166;2024-01-30T08:06:06;4.50;;;3.13;;
14100;SDS011;7127;49.372;8.166;2024-01-30T08:08:33;3.73;;;3.13;;
14100;SDS011;7127;49.372;8.166;2024-01-30T08:10:59;4.03;;;3.37;;
14100;SDS011;7127;49.372;8.166;2024-01-30T08:13:26;4.23;;;3.37;;
14100;SDS011;7127;49.372;8.166;2024-01-30T08:15:53;4.27;;;3.00;;
14100;SDS011;7127;49.372;8.166;2024-01-30T08:18:20;3.20;;;2.90;;
14100;SDS011;7127;49.372;8.166;2024-01-30T08:20:47;3.40;;;2.80;;
14100;SDS011;7127;49.372;8.166;2024-01-30T08:23:15;3.07;;;2.67;;
14100;SDS011;7127;49.372;8.166;2024-01-30T08:25:42;3.37;;;2.63;;
14100;SDS011;7127;49.372;8.166;2024-01-30T08:28:09;2.90;;;2.67;;
14100;SDS011;7127;49.372;8.166;2024-01-30T08:30:35;3.57;;;2.90;;
14100;SDS011;7127;49.372;8.166;2024-01-30T08:33:04;3.37;;;2.87;;
14100;SDS011;7127;49.372;8.166;2024-01-30T08:35:31;5.10;;;2.90;;
14100;SDS011;7127;49.372;8.166;2024-01-30T08:37:58;3.90;;;3.37;;
14100;SDS011;7127;49.372;8.166;2024-01-30T08:40:26;3.90;;;3.27;;
14100;SDS011;7127;49.372;8.166;2024-01-30T08:42:53;3.67;;;3.37;;
14100;SDS011;7127;49.372;8.166;2024-01-30T08:45:20;4.00;;;3.43;;
14100;SDS011;7127;49.372;8.166;2024-01-30T08:47:47;4.83;;;3.27;;
14100;SDS011;7127;49.372;8.166;2024-01-30T08:50:14;4.07;;;3.60;;
14100;SDS011;7127;49.372;8.166;2024-01-30T08:52:41;4.80;;;3.73;;
14100;SDS011;7127;49.372;8.166;2024-01-30T08:55:07;7.53;;;3.60;;
14100;SDS011;7127;49.372;8.166;2024-01-30T08:57:36;5.47;;;3.67;;
14100;SDS011;7127;49.372;8.166;2024-01-30T09:00:03;4.40;;;3.50;;
14100;SDS011;7127;49.372;8.166;2024-01-30T09:02:33;7.30;;;3.20;;
14100;SDS011;7127;49.372;8.166;2024-01-30T09:05:01;6.50;;;3.63;;
14100;SDS011;7127;49.372;8.166;2024-01-30T09:07:27;4.17;;;3.53;;
14100;SDS011;7127;49.372;8.166;2024-01-30T09:09:54;3.93;;;3.27;;
14100;SDS011;7127;49.372;8.166;2024-01-30T09:12:21;3.83;;;3.10;;
14100;SDS011;7127;49.372;8.166;2024-01-30T09:14:49;3.80;;;2.93;;
14100;SDS011;7127;49.372;8.166;2024-01-30T09:17:16;4.40;;;3.13;;
14100;SDS011;7127;49.372;8.166;2024-01-30T09:19:42;2.97;;;2.67;;
14100;SDS011;7127;49.372;8.166;2024-01-30T09:22:09;3.53;;;2.87;;
14100;SDS011;7127;49.372;8.166;2024-01-30T09:24:36;3.13;;;2.70;;
14100;SDS011;7127;49.372;8.166;2024-01-30T09:27:03;4.07;;;2.70;;
14100;SDS011;7127;49.372;8.166;2024-01-30T09:29:31;3.93;;;3.03;;
14100;SDS011;7127;49.372;8.166;2024-01-30T09:32:00;4.73;;;3.27;;
14100;SDS011;7127;49.372;8.166;2024-01-30T09:34:27;4.70;;;3.73;;
14100;SDS011;7127;49.372;8.166;2024-01-30T09:36:54;5.50;;;4.53;;
14100;SDS011;7127;49.372;8.166;2024-01-30T09:39:20;5.33;;;4.30;;
14100;SDS011;7127;49.372;8.166;2024-01-30T09:41:48;5.37;;;4.50;;
14100;SDS011;7127;49.372;8.166;2024-01-30T09:44:20;5.37;;;4.70;;
14100;SDS011;7127;49.372;8.166;2024-01-30T09:46:47;5.33;;;4.70;;
14100;SDS011;7127;49.372;8.166;2024-01-30T09:49:17;6.73;;;5.20;;
14100;SDS011;7127;49.372;8.166;2024-01-30T09:51:44;5.47;;;4.97;;
14100;SDS011;7127;49.372;8.166;2024-01-30T09:54:12;5.93;;;4.53;;
14100;SDS011;7127;49.372;8.166;2024-01-30T09:56:40;5.63;;;5.03;;
14100;SDS011;7127;49.372;8.166;2024-01-30T09:59:07;4.83;;;4.33;;
14100;SDS011;7127;49.372;8.166;2024-01-30T10:01:34;7.07;;;4.80;;
14100;SDS011;7127;49.372;8.166;2024-01-30T10:04:08;4.97;;;4.50;;
14100;SDS011;7127;49.372;8.166;2024-01-30T10:06:36;5.83;;;4.33;;
14100;SDS011;7127;49.372;8.166;2024-01-30T10:09:04;6.03;;;4.60;;
14100;SDS011;7127;49.372;8.166;2024-01-30T10:11:31;5.20;;;4.27;;
14100;SDS011;7127;49.372;8.166;2024-01-30T10:13:57;6.80;;;4.50;;
14100;SDS011;7127;49.372;8.166;2024-01-30T10:16:24;5.77;;;4.70;;
14100;SDS011;7127;49.372;8.166;2024-01-30T10:18:51;5.67;;;4.77;;
14100;SDS011;7127;49.372;8.166;2024-01-30T10:21:18;5.80;;;5.13;;
14100;SDS011;7127;49.372;8.166;2024-01-30T10:23:46;7.23;;;5.30;;
14100;SDS011;7127;49.372;8.166;2024-01-30T10:26:13;5.70;;;4.80;;
14100;SDS011;7127;49.372;8.166;2024-01-30T10:31:24;6.17;;;5.37;;
14100;SDS011;7127;49.372;8.166;2024-01-30T10:33:51;8.97;;;5.40;;
14100;SDS011;7127;49.372;8.166;2024-01-30T10:39:55;5.67;;;5.07;;
14100;SDS011;7127;49.372;8.166;2024-01-30T10:42:26;6.17;;;5.57;;
14100;SDS011;7127;49.372;8.166;2024-01-30T10:45:00;5.93;;;4.53;;
14100;SDS011;7127;49.372;8.166;2024-01-30T10:47:32;5.63;;;5.03;;
14100;SDS011;7127;49.372;8.166;2024-01-30T10:50:00;5.97;;;5.37;;
14100;SDS011;7127;49.372;8.166;2024-01-30T10:52:28;5.40;;;4.77;;
14100;SDS011;7127;49.372;8.166;2024-01-30T10:54:57;5.47;;;4.60;;
14100;SDS011;7127;49.372;8.166;2024-01-30T10:57:25;7.00;;;5.30;;
14100;SDS011;7127;49.372;8.166;2024-01-30T10:59:53;6.27;;;5.30;;
14100;SDS011;7127;49.372;8.166;2024-01-30T11:02:23;6.77;;;5.70;;
14100;SDS011;7127;49.372;8.166;2024-01-30T11:04:54;7.07;;;5.60;;
14100;SDS011;7127;49.372;8.166;2024-01-30T11:07:23;7.97;;;6.23;;
14100;SDS011;7127;49.372;8.166;2024-01-30T11:09:51;7.33;;;5.73;;
14100;SDS011;7127;49.372;8.166;2024-01-30T11:12:23;7.83;;;6.87;;
14100;SDS011;7127;49.372;8.166;2024-01-30T11:15:01;6.93;;;6.23;;
14100;SDS011;7127;49.372;8.166;2024-01-30T11:17:44;6.30;;;5.70;;
14100;SDS011;7127;49.372;8.166;2024-01-30T11:20:16;6.00;;;5.30;;
14100;SDS011;7127;49.372;8.166;2024-01-30T11:22:47;6.73;;;5.30;;
14100;SDS011;7127;49.372;8.166;2024-01-30T11:25:17;8.53;;;5.73;;
14100;SDS011;7127;49.372;8.166;2024-01-30T11:27:47;6.47;;;5.40;;
14100;SDS011;7127;49.372;8.166;2024-01-30T11:30:23;5.73;;;5.13;;
14100;SDS011;7127;49.372;8.166;2024-01-30T11:32:58;5.67;;;5.03;;
14100;SDS011;7127;49.372;8.166;2024-01-30T11:35:25;6.30;;;5.10;;
14100;SDS011;7127;49.372;8.166;2024-01-30T11:37:54;6.33;;;5.43;;
14100;SDS011;7127;49.372;8.166;2024-01-30T11:40:24;5.70;;;4.90;;
14100;SDS011;7127;49.372;8.166;2024-01-30T11:42:57;5.77;;;5.17;;
14100;SDS011;7127;49.372;8.166;2024-01-30T11:45:32;5.13;;;4.63;;
14100;SDS011;7127;49.372;8.166;2024-01-30T11:48:06;6.53;;;4.37;;
14100;SDS011;7127;49.372;8.166;2024-01-30T11:50:53;5.70;;;4.90;;
14100;SDS011;7127;49.372;8.166;2024-01-30T11:53:20;4.93;;;4.50;;
14100;SDS011;7127;49.372;8.166;2024-01-30T11:55:49;5.70;;;4.57;;
14100;SDS011;7127;49.372;8.166;2024-01-30T11:58:18;5.40;;;4.63;;
14100;SDS011;7127;49.372;8.166;2024-01-30T12:00:52;4.77;;;4.27;;
14100;SDS011;7127;49.372;8.166;2024-01-30T12:03:20;4.87;;;4.37;;
14100;SDS011;7127;49.372;8.166;2024-01-30T12:05:54;5.60;;;4.60;;
14100;SDS011;7127;49.372;8.166;2024-01-30T12:08:21;5.17;;;4.23;;
14100;SDS011;7127;49.372;8.166;2024-01-30T12:10:54;5.10;;;4.20;;
14100;SDS011;7127;49.372;8.166;2024-01-30T12:13:23;5.77;;;4.93;;
14100;SDS011;7127;49.372;8.166;2024-01-30T12:15:51;4.77;;;4.03;;
14100;SDS011;7127;49.372;8.166;2024-01-30T12:18:18;6.03;;;4.57;;
14100;SDS011;7127;49.372;8.166;2024-01-30T12:20:47;5.60;;;4.67;;
14100;SDS011;7127;49.372;8.166;2024-01-30T12:23:23;6.33;;;5.03;;
14100;SDS011;7127;49.372;8.166;2024-01-30T12:25:51;5.40;;;4.47;;
14100;SDS011;7127;49.372;8.166;2024-01-30T12:28:18;4.80;;;4.30;;
14100;SDS011;7127;49.372;8.166;2024-01-30T12:30:46;5.00;;;4.23;;
14100;SDS011;7127;49.372;8.166;2024-01-30T12:33:16;4.40;;;3.97;;
14100;SDS011;7127;49.372;8.166;2024-01-30T12:35:45;7.33;;;4.03;;
14100;SDS011;7127;49.372;8.166;2024-01-30T12:38:12;5.47;;;4.00;;
14100;SDS011;7127;49.372;8.166;2024-01-30T12:40:39;5.17;;;4.23;;
14100;SDS011;7127;49.372;8.166;2024-01-30T12:43:06;4.37;;;3.60;;
14100;SDS011;7127;49.372;8.166;2024-01-30T12:45:33;3.97;;;3.50;;
14100;SDS011;7127;49.372;8.166;2024-01-30T12:48:03;3.73;;;3.17;;
14100;SDS011;7127;49.372;8.166;2024-01-30T12:50:31;3.90;;;3.20;;
14100;SDS011;7127;49.372;8.166;2024-01-30T12:52:57;3.43;;;3.00;;
14100;SDS011;7127;49.372;8.166;2024-01-30T12:55:25;2.67;;;2.47;;
14100;SDS011;7127;49.372;8.166;2024-01-30T12:57:53;3.47;;;2.90;;
14100;SDS011;7127;49.372;8.166;2024-01-30T13:00:20;2.77;;;2.50;;
14100;SDS011;7127;49.372;8.166;2024-01-30T13:02:47;3.37;;;2.70;;
14100;SDS011;7127;49.372;8.166;2024-01-30T13:05:15;3.10;;;2.70;;
14100;SDS011;7127;49.372;8.166;2024-01-30T13:07:42;3.63;;;2.80;;
14100;SDS011;7127;49.372;8.166;2024-01-30T13:10:09;3.23;;;2.60;;
14100;SDS011;7127;49.372;8.166;2024-01-30T13:12:36;3.27;;;2.70;;
14100;SDS011;7127;49.372;8.166;2024-01-30T13:15:03;3.10;;;2.60;;
14100;SDS011;7127;49.372;8.166;2024-01-30T13:17:31;2.73;;;2.33;;
14100;SDS011;7127;49.372;8.166;2024-01-30T13:19:58;4.30;;;2.77;;
14100;SDS011;7127;49.372;8.166;2024-01-30T13:22:27;3.13;;;2.70;;
14100;SDS011;7127;49.372;8.166;2024-01-30T13:24:53;3.30;;;2.90;;
14100;SDS011;7127;49.372;8.166;2024-01-30T13:27:20;4.07;;;2.70;;
14100;SDS011;7127;49.372;8.166;2024-01-30T13:29:47;4.07;;;2.77;;
14100;SDS011;7127;49.372;8.166;2024-01-30T13:32:14;3.53;;;2.33;;
14100;SDS011;7127;49.372;8.166;2024-01-30T13:34:41;3.13;;;2.77;;
14100;SDS011;7127;49.372;8.166;2024-01-30T13:37:08;2.70;;;2.40;;
14100;SDS011;7127;49.372;8.166;2024-01-30T13:39:37;3.10;;;2.80;;
14100;SDS011;7127;49.372;8.166;2024-01-30T13:42:04;3.80;;;2.77;;
14100;SDS011;7127;49.372;8.166;2024-01-30T13:44:31;4.00;;;2.97;;
14100;SDS011;7127;49.372;8.166;2024-01-30T13:46:58;3.00;;;2.70;;
14100;SDS011;7127;49.372;8.166;2024-01-30T13:49:25;3.63;;;2.43;;
14100;SDS011;7127;49.372;8.166;2024-01-30T13:51:52;3.33;;;2.47;;
14100;SDS011;7127;49.372;8.166;2024-01-30T13:54:18;3.00;;;2.70;;
14100;SDS011;7127;49.372;8.166;2024-01-30T13:56:47;4.47;;;2.77;;
14100;SDS011;7127;49.372;8.166;2024-01-30T13:59:13;3.67;;;2.70;;
14100;SDS011;7127;49.372;8.166;2024-01-30T14:01:40;3.00;;;2.33;;
14100;SDS011;7127;49.372;8.166;2024-01-30T14:04:07;3.67;;;2.70;;
14100;SDS011;7127;49.372;8.166;2024-01-30T14:06:34;4.07;;;2.80;;
14100;SDS011;7127;49.372;8.166;2024-01-30T14:09:00;2.90;;;2.60;;
14100;SDS011;7127;49.372;8.166;2024-01-30T14:11:29;2.97;;;2.50;;
14100;SDS011;7127;49.372;8.166;2024-01-30T14:13:57;2.93;;;2.50;;
14100;SDS011;7127;49.372;8.166;2024-01-30T14:16:24;3.20;;;2.33;;
14100;SDS011;7127;49.372;8.166;2024-01-30T14:18:50;3.50;;;2.70;;
14100;SDS011;7127;49.372;8.166;2024-01-30T14:21:17;2.77;;;2.47;;
14100;SDS011;7127;49.372;8.166;2024-01-30T14:23:44;3.90;;;2.43;;
14100;SDS011;7127;49.372;8.166;2024-01-30T14:26:12;5.40;;;2.63;;
14100;SDS011;7127;49.372;8.166;2024-01-30T14:28:39;2.87;;;2.43;;
14100;SDS011;7127;49.372;8.166;2024-01-30T14:31:07;3.80;;;2.50;;
14100;SDS011;7127;49.372;8.166;2024-01-30T14:33:34;3.93;;;2.33;;
14100;SDS011;7127;49.372;8.166;2024-01-30T14:36:01;2.77;;;2.50;;
14100;SDS011;7127;49.372;8.166;2024-01-30T14:38:28;3.20;;;2.50;;
14100;SDS011;7127;49.372;8.166;2024-01-30T14:40:55;4.60;;;2.63;;
14100;SDS011;7127;49.372;8.166;2024-01-30T14:46:27;3.20;;;2.67;;
14100;SDS011;7127;49.372;8.166;2024-01-30T14:48:53;4.37;;;2.73;;
14100;SDS011;7127;49.372;8.166;2024-01-30T14:51:22;3.63;;;2.77;;
14100;SDS011;7127;49.372;8.166;2024-01-30T14:53:49;3.10;;;2.50;;
14100;SDS011;7127;49.372;8.166;2024-01-30T14:56:16;3.33;;;2.50;;
14100;SDS011;7127;49.372;8.166;2024-01-30T14:58:45;2.73;;;2.40;;
14100;SDS011;7127;49.372;8.166;2024-01-30T15:01:12;3.80;;;2.80;;
14100;SDS011;7127;49.372;8.166;2024-01-30T15:03:40;2.53;;;2.33;;
14100;SDS011;7127;49.372;8.166;2024-01-30T15:06:08;2.80;;;2.60;;
14100;SDS011;7127;49.372;8.166;2024-01-30T15:08:35;4.97;;;2.97;;
14100;SDS011;7127;49.372;8.166;2024-01-30T15:11:02;4.97;;;3.13;;